createdAt,value
2019-05-11T00:01:03.086Z,6.28
2019-05-11T00:03:31.930Z,6.60
2019-05-11T00:06:00.825Z,6.83
2019-05-11T00:08:29.805Z,7.80
2019-05-11T00:10:58.697Z,7.40
2019-05-11T00:13:27.608Z,6.60
2019-05-11T00:15:56.529Z,7.10
2019-05-11T00:18:25.384Z,6.65
2019-05-11T00:20:54.412Z,7.58
2019-05-11T00:23:23.382Z,7.08
2019-05-11T00:25:52.320Z,7.60
2019-05-11T00:28:21.396Z,6.60
2019-05-11T00:30:50.286Z,7.10
2019-05-11T00:33:19.215Z,11.65
2019-05-11T00:35:48.037Z,8.75
2019-05-11T00:38:16.912Z,9.00
2019-05-11T00:40:45.813Z,7.50
2019-05-11T00:43:14.729Z,7.10
2019-05-11T00:45:43.793Z,8.18
2019-05-11T00:48:16.361Z,6.42
2019-05-11T00:50:45.193Z,7.37
2019-05-11T00:53:14.273Z,6.60
2019-05-11T00:55:43.288Z,7.20
2019-05-11T00:58:12.289Z,8.20
2019-05-11T01:00:41.204Z,9.98
2019-05-11T01:03:10.078Z,8.55
2019-05-11T01:05:39.117Z,9.50
2019-05-11T01:08:08.067Z,9.00
2019-05-11T01:10:42.264Z,8.78
2019-05-11T01:13:07.604Z,9.67
2019-05-11T01:15:36.506Z,11.23
2019-05-11T01:18:05.420Z,10.35
2019-05-11T01:20:53.537Z,9.50
2019-05-11T01:23:22.383Z,10.03
2019-05-11T01:25:51.582Z,10.23
2019-05-11T01:28:20.528Z,10.80
2019-05-11T01:30:49.404Z,9.95
2019-05-11T01:33:18.162Z,9.28
2019-05-11T01:35:46.995Z,9.75
2019-05-11T01:38:15.842Z,10.35
2019-05-11T01:40:57.590Z,9.03
2019-05-11T01:43:15.299Z,8.93
2019-05-11T01:45:44.133Z,8.75
2019-05-11T01:48:13.041Z,9.90
2019-05-11T01:50:42.013Z,9.30
2019-05-11T01:53:10.788Z,9.78
2019-05-11T01:55:39.687Z,10.08
2019-05-11T01:58:08.697Z,9.85
2019-05-11T02:00:37.522Z,10.32
2019-05-11T02:03:06.361Z,10.10
2019-05-11T02:05:35.299Z,10.28
2019-05-11T02:08:04.272Z,10.93
2019-05-11T02:10:33.285Z,10.23
2019-05-11T02:13:02.304Z,11.60
2019-05-11T02:15:31.314Z,11.30
2019-05-11T02:18:00.185Z,12.00
2019-05-11T02:20:29.133Z,12.60
2019-05-11T02:22:58.094Z,12.88
2019-05-11T02:25:27.412Z,12.82
2019-05-11T02:27:56.296Z,12.50
2019-05-11T02:30:25.327Z,15.35
2019-05-11T02:32:54.341Z,13.20
2019-05-11T02:35:23.353Z,11.83
2019-05-11T02:37:52.325Z,11.87
2019-05-11T02:40:21.640Z,12.40
2019-05-11T02:42:50.544Z,11.35
2019-05-11T02:45:37.821Z,11.70
2019-05-11T02:48:07.135Z,12.13
2019-05-11T02:50:38.022Z,11.97
2019-05-11T02:53:07.270Z,11.63
2019-05-11T02:55:36.355Z,11.55
2019-05-11T02:58:06.300Z,12.95
2019-05-11T03:00:37.981Z,12.25
2019-05-11T03:03:07.037Z,15.03
2019-05-11T03:05:36.031Z,16.35
2019-05-11T03:08:05.055Z,20.90
2019-05-11T03:10:34.174Z,21.33
2019-05-11T03:13:03.066Z,23.02
2019-05-11T03:15:32.185Z,23.98
2019-05-11T03:18:01.297Z,24.10
2019-05-11T03:20:30.266Z,27.30
2019-05-11T03:22:59.170Z,27.15
2019-05-11T03:25:28.067Z,28.40
2019-05-11T03:27:56.867Z,30.27
2019-05-11T03:30:25.808Z,32.80
2019-05-11T03:32:54.970Z,36.90
2019-05-11T03:35:23.958Z,38.10
2019-05-11T03:37:52.811Z,41.70
2019-05-11T03:40:22.299Z,40.10
2019-05-11T03:42:51.080Z,39.23
2019-05-11T03:45:20.093Z,41.58
2019-05-11T03:47:49.002Z,46.05
2019-05-11T03:50:17.960Z,47.23
2019-05-11T03:52:46.837Z,51.30
2019-05-11T03:55:15.800Z,51.10
2019-05-11T03:57:44.584Z,27.95
2019-05-11T04:00:13.984Z,39.27
2019-05-11T04:02:43.061Z,17.02
2019-05-11T04:05:12.765Z,14.40
2019-05-11T04:07:41.800Z,13.80
2019-05-11T04:10:10.806Z,12.82
2019-05-11T04:12:39.712Z,12.00
2019-05-11T04:15:08.752Z,10.80
2019-05-11T04:17:37.644Z,11.28
2019-05-11T04:20:06.972Z,11.28
2019-05-11T04:22:35.974Z,10.80
2019-05-11T04:25:05.594Z,10.23
2019-05-11T04:27:34.392Z,11.43
2019-05-11T04:30:03.316Z,11.48
2019-05-11T04:32:32.231Z,11.00
2019-05-11T04:35:01.078Z,11.95
2019-05-11T04:37:29.949Z,11.60
2019-05-11T04:39:58.769Z,11.68
2019-05-11T04:42:27.819Z,10.78
2019-05-11T04:44:56.684Z,10.80
2019-05-11T04:47:25.500Z,10.05
2019-05-11T04:49:54.422Z,10.90
2019-05-11T04:52:23.339Z,9.73
2019-05-11T04:54:52.197Z,9.73
2019-05-11T04:57:21.090Z,9.43
2019-05-11T04:59:50.112Z,10.35
2019-05-11T05:02:18.984Z,9.20
2019-05-11T05:04:47.984Z,10.82
2019-05-11T05:07:17.009Z,8.80
2019-05-11T05:09:45.908Z,9.50
2019-05-11T05:12:15.687Z,8.40
2019-05-11T05:14:44.660Z,9.67
2019-05-11T05:17:13.530Z,8.55
2019-05-11T05:19:42.459Z,10.18
2019-05-11T05:22:11.612Z,13.58
2019-05-11T05:24:40.451Z,9.05
2019-05-11T05:27:09.479Z,7.90
2019-05-11T05:29:38.340Z,9.00
2019-05-11T05:32:07.441Z,8.98
2019-05-11T05:34:36.361Z,8.25
2019-05-11T05:37:05.363Z,8.15
2019-05-11T05:39:34.253Z,8.63
2019-05-11T05:42:03.324Z,8.45
2019-05-11T05:44:32.178Z,8.90
2019-05-11T05:47:01.194Z,8.75
2019-05-11T05:49:30.032Z,8.80
2019-05-11T05:51:58.858Z,8.28
2019-05-11T05:54:27.989Z,8.23
2019-05-11T05:56:59.913Z,7.70
2019-05-11T05:59:29.188Z,8.08
2019-05-11T06:01:57.950Z,8.20
2019-05-11T06:04:26.816Z,7.90
2019-05-11T06:06:55.618Z,8.55
2019-05-11T06:09:24.470Z,7.65
2019-05-11T06:11:53.407Z,7.55
2019-05-11T06:14:22.286Z,8.30
2019-05-11T06:16:51.151Z,7.80
2019-05-11T06:19:20.044Z,7.58
2019-05-11T06:21:49.030Z,8.30
2019-05-11T06:24:17.943Z,11.40
2019-05-11T06:26:46.801Z,7.70
2019-05-11T06:29:15.609Z,6.70
2019-05-11T06:31:44.442Z,6.57
2019-05-11T06:34:13.375Z,5.55
2019-05-11T06:36:42.280Z,5.12
2019-05-11T06:39:11.152Z,4.97
2019-05-11T06:41:40.075Z,4.33
2019-05-11T06:44:08.956Z,3.80
2019-05-11T06:46:37.820Z,3.80
2019-05-11T06:49:06.727Z,4.10
2019-05-11T06:51:39.683Z,4.58
2019-05-11T06:54:06.285Z,3.83
2019-05-11T06:56:35.127Z,3.60
2019-05-11T06:59:03.942Z,3.55
2019-05-11T07:01:32.839Z,4.85
2019-05-11T07:04:01.715Z,3.72
2019-05-11T07:06:30.893Z,3.60
2019-05-11T07:08:59.803Z,4.00
2019-05-11T07:11:28.620Z,4.30
2019-05-11T07:13:57.570Z,3.90
2019-05-11T07:16:26.485Z,3.90
2019-05-11T07:18:55.297Z,3.65
2019-05-11T07:21:24.119Z,3.50
2019-05-11T07:23:53.054Z,4.37
2019-05-11T07:26:21.951Z,4.87
2019-05-11T07:28:51.236Z,4.30
2019-05-11T07:31:20.263Z,3.30
2019-05-11T07:33:49.269Z,3.30
2019-05-11T07:36:18.324Z,3.90
2019-05-11T07:38:48.761Z,3.37
2019-05-11T07:41:17.972Z,3.35
2019-05-11T07:43:48.499Z,5.12
2019-05-11T07:46:18.206Z,4.00
2019-05-11T07:48:48.055Z,3.70
2019-05-11T07:51:18.315Z,3.40
2019-05-11T07:53:48.621Z,3.45
2019-05-11T07:56:18.759Z,5.47
2019-05-11T07:58:48.214Z,7.90
2019-05-11T08:01:18.930Z,3.50
2019-05-11T08:03:48.479Z,2.85
2019-05-11T08:06:18.285Z,2.90
2019-05-11T08:08:49.052Z,3.27
2019-05-11T08:11:18.422Z,2.70
2019-05-11T08:13:48.108Z,2.85
2019-05-11T08:16:18.490Z,2.83
2019-05-11T08:18:49.606Z,3.07
2019-05-11T08:21:18.989Z,3.60
2019-05-11T08:23:48.483Z,3.77
2019-05-11T08:26:19.028Z,3.10
2019-05-11T08:28:48.576Z,2.50
2019-05-11T08:31:18.759Z,3.00
2019-05-11T08:33:48.267Z,2.60
2019-05-11T08:36:18.445Z,2.80
2019-05-11T08:38:48.402Z,2.65
2019-05-11T08:41:18.444Z,3.30
2019-05-11T08:43:48.178Z,3.55
2019-05-11T08:46:18.558Z,3.08
2019-05-11T08:48:47.950Z,3.30
2019-05-11T08:51:18.646Z,2.80
2019-05-11T08:53:48.163Z,3.17
2019-05-11T08:56:18.855Z,4.03
2019-05-11T08:58:49.197Z,3.50
2019-05-11T09:01:18.628Z,3.47
2019-05-11T09:03:47.896Z,2.80
2019-05-11T09:06:17.947Z,3.00
2019-05-11T09:08:49.266Z,2.90
2019-05-11T09:11:19.018Z,3.20
2019-05-11T09:13:48.981Z,3.10
2019-05-11T09:16:18.921Z,2.40
2019-05-11T09:18:48.282Z,2.90
2019-05-11T09:21:18.983Z,2.90
2019-05-11T09:23:48.618Z,3.67
2019-05-11T09:26:18.450Z,4.40
2019-05-11T09:28:47.846Z,3.60
2019-05-11T09:31:18.856Z,3.35
2019-05-11T09:33:48.012Z,3.15
2019-05-11T09:36:18.046Z,2.92
2019-05-11T09:38:48.892Z,3.20
2019-05-11T09:41:18.286Z,3.37
2019-05-11T09:43:48.286Z,3.00
2019-05-11T09:46:18.891Z,3.10
2019-05-11T09:48:48.530Z,2.70
2019-05-11T09:51:18.575Z,3.30
2019-05-11T09:53:48.577Z,4.43
2019-05-11T09:56:20.352Z,2.90
2019-05-11T09:58:50.380Z,2.77
2019-05-11T10:04:42.455Z,3.45
2019-05-11T10:07:15.422Z,3.25
2019-05-11T10:09:47.834Z,3.47
2019-05-11T10:12:18.161Z,3.15
2019-05-11T10:14:48.582Z,3.10
2019-05-11T10:17:18.279Z,3.20
2019-05-11T10:19:49.520Z,3.70
2019-05-11T10:22:18.565Z,3.67
2019-05-11T10:24:47.796Z,4.12
2019-05-11T10:27:18.812Z,3.40
2019-05-11T10:29:48.351Z,3.40
2019-05-11T10:32:18.265Z,4.58
2019-05-11T10:34:47.868Z,3.47
2019-05-11T10:37:17.658Z,3.98
2019-05-11T10:39:48.762Z,4.25
2019-05-11T10:42:17.997Z,3.17
2019-05-11T10:44:47.838Z,3.90
2019-05-11T10:47:18.475Z,4.22
2019-05-11T10:49:48.466Z,3.87
2019-05-11T10:52:18.133Z,3.80
2019-05-11T10:54:47.844Z,3.50
2019-05-11T10:57:18.924Z,3.75
2019-05-11T10:59:48.840Z,3.70
2019-05-11T11:02:18.565Z,4.42
2019-05-11T11:04:48.572Z,4.00
2019-05-11T11:07:19.456Z,4.30
2019-05-11T11:09:50.339Z,4.08
2019-05-11T11:12:19.243Z,4.30
2019-05-11T11:14:48.324Z,4.60
2019-05-11T11:17:19.143Z,4.70
2019-05-11T11:19:48.605Z,4.00
2019-05-11T11:22:36.194Z,4.20
2019-05-11T11:24:48.355Z,3.98
2019-05-11T11:27:18.515Z,3.80
2019-05-11T11:29:47.771Z,5.72
2019-05-11T11:32:18.421Z,3.90
2019-05-11T11:34:48.510Z,3.72
2019-05-11T11:37:17.642Z,3.67
2019-05-11T11:39:47.639Z,3.75
2019-05-11T11:42:18.515Z,3.47
2019-05-11T11:44:48.335Z,3.50
2019-05-11T11:47:21.353Z,4.67
2019-05-11T11:49:48.136Z,3.83
2019-05-11T11:52:18.794Z,2.92
2019-05-11T11:54:48.019Z,3.90
2019-05-11T11:57:18.211Z,3.70
2019-05-11T11:59:48.169Z,4.10
2019-05-11T12:02:19.101Z,3.90
2019-05-11T12:04:48.560Z,4.40
2019-05-11T12:07:17.973Z,5.60
2019-05-11T12:09:48.400Z,4.58
2019-05-11T12:12:18.601Z,3.70
2019-05-11T12:14:48.131Z,3.70
2019-05-11T12:17:18.163Z,3.62
2019-05-11T12:19:47.978Z,4.00
2019-05-11T12:22:18.747Z,4.10
2019-05-11T12:24:48.374Z,3.63
2019-05-11T12:27:18.230Z,6.20
2019-05-11T12:29:47.677Z,7.30
2019-05-11T12:32:23.176Z,4.95
2019-05-11T12:34:51.967Z,4.95
2019-05-11T12:37:22.113Z,4.40
2019-05-11T12:39:51.375Z,4.60
2019-05-11T12:42:20.312Z,4.33
2019-05-11T12:44:49.167Z,4.40
2019-05-11T12:47:24.114Z,5.08
2019-05-11T12:49:48.589Z,4.60
2019-05-11T12:52:18.500Z,3.98
2019-05-11T12:54:47.941Z,4.60
2019-05-11T12:57:18.594Z,5.45
2019-05-11T12:59:48.697Z,4.50
2019-05-11T13:02:18.481Z,4.60
2019-05-11T13:04:47.862Z,4.33
2019-05-11T13:07:19.573Z,4.35
2019-05-11T13:09:48.437Z,4.47
2019-05-11T13:12:18.666Z,5.37
2019-05-11T13:14:48.873Z,4.40
2019-05-11T13:17:18.595Z,4.50
2019-05-11T13:19:48.658Z,5.60
2019-05-11T13:22:18.402Z,11.73
2019-05-11T13:24:48.052Z,5.60
2019-05-11T13:27:18.091Z,4.70
2019-05-11T13:29:48.648Z,5.30
2019-05-11T13:32:18.647Z,5.00
2019-05-11T13:34:48.156Z,4.90
2019-05-11T13:37:18.756Z,5.40
2019-05-11T13:39:50.415Z,5.10
2019-05-11T13:42:19.885Z,5.60
2019-05-11T13:44:49.838Z,4.67
2019-05-11T13:47:18.799Z,5.30
2019-05-11T13:49:48.806Z,5.10
2019-05-11T13:52:18.240Z,7.90
2019-05-11T13:54:48.268Z,5.60
2019-05-11T13:57:18.212Z,5.60
2019-05-11T13:59:47.711Z,5.08
2019-05-11T14:02:18.029Z,5.30
2019-05-11T14:04:48.169Z,6.35
2019-05-11T14:07:18.732Z,6.35
2019-05-11T14:09:48.510Z,5.50
2019-05-11T14:12:18.326Z,5.85
2019-05-11T14:14:48.163Z,5.47
2019-05-11T14:17:18.658Z,5.50
2019-05-11T14:19:49.375Z,5.90
2019-05-11T14:22:18.259Z,5.90
2019-05-11T14:24:48.277Z,6.15
2019-05-11T14:27:18.026Z,5.47
2019-05-11T14:29:48.641Z,6.13
2019-05-11T14:32:17.912Z,5.95
2019-05-11T14:34:48.465Z,9.05
2019-05-11T14:37:18.163Z,5.43
2019-05-11T14:39:49.611Z,5.75
2019-05-11T14:42:22.161Z,6.58
2019-05-11T14:44:49.620Z,6.30
2019-05-11T14:47:18.870Z,6.35
2019-05-11T14:49:48.346Z,7.90
2019-05-11T14:52:18.737Z,6.97
2019-05-11T14:54:48.611Z,6.35
2019-05-11T14:57:18.625Z,6.10
2019-05-11T14:59:48.332Z,5.50
2019-05-11T15:02:37.712Z,5.50
2019-05-11T15:05:08.642Z,6.72
2019-05-11T15:07:38.521Z,5.80
2019-05-11T15:10:08.341Z,5.35
2019-05-11T15:12:37.982Z,5.45
2019-05-11T15:15:08.010Z,5.53
2019-05-11T15:17:39.498Z,5.95
2019-05-11T15:20:08.456Z,6.40
2019-05-11T15:22:37.805Z,6.35
2019-05-11T15:25:11.164Z,9.63
2019-05-11T15:27:40.282Z,6.17
2019-05-11T15:30:09.659Z,5.05
2019-05-11T15:32:38.555Z,5.30
2019-05-11T15:35:08.162Z,6.20
2019-05-11T15:37:38.539Z,5.30
2019-05-11T15:40:14.902Z,5.60
2019-05-11T15:42:44.101Z,5.70
2019-05-11T15:45:15.514Z,5.67
2019-05-11T15:47:44.853Z,6.20
2019-05-11T15:50:15.970Z,5.72
2019-05-11T15:52:45.387Z,5.83
2019-05-11T15:55:15.090Z,5.87
2019-05-11T15:57:44.151Z,41.20
2019-05-11T16:00:14.126Z,6.12
2019-05-11T16:02:43.039Z,6.42
2019-05-11T16:05:12.577Z,7.70
2019-05-11T16:07:41.725Z,6.37
2019-05-11T16:10:11.033Z,6.80
2019-05-11T16:12:39.998Z,7.33
2019-05-11T16:15:11.015Z,5.70
2019-05-11T16:17:40.495Z,6.00
2019-05-11T16:20:11.885Z,5.45
2019-05-11T16:22:40.935Z,6.25
2019-05-11T16:25:10.343Z,6.80
2019-05-11T16:27:39.267Z,8.33
2019-05-11T16:30:09.313Z,7.47
2019-05-11T16:32:38.701Z,8.30
2019-05-11T16:35:11.953Z,7.08
2019-05-11T16:37:40.963Z,8.13
2019-05-11T16:40:10.434Z,6.70
2019-05-11T16:42:39.465Z,6.60
2019-05-11T16:45:09.406Z,6.97
2019-05-11T16:47:39.090Z,7.45
2019-05-11T16:50:09.114Z,7.55
2019-05-11T16:52:38.754Z,8.40
2019-05-11T16:55:08.237Z,7.58
2019-05-11T16:57:38.177Z,6.45
2019-05-11T17:00:08.899Z,6.45
2019-05-11T17:02:38.343Z,8.00
2019-05-11T17:05:08.198Z,6.75
2019-05-11T17:07:37.691Z,7.50
2019-05-11T17:10:10.061Z,8.07
2019-05-11T17:12:39.244Z,7.75
2019-05-11T17:15:09.039Z,5.87
2019-05-11T17:17:38.183Z,6.17
2019-05-11T17:20:08.112Z,7.30
2019-05-11T17:22:38.885Z,6.95
2019-05-11T17:25:08.564Z,6.30
2019-05-11T17:27:37.980Z,6.40
2019-05-11T17:30:08.748Z,7.37
2019-05-11T17:32:38.425Z,7.10
2019-05-11T17:35:08.467Z,6.90
2019-05-11T17:37:38.213Z,6.35
2019-05-11T17:40:09.149Z,7.05
2019-05-11T17:42:38.341Z,6.50
2019-05-11T17:45:08.154Z,6.42
2019-05-11T17:47:38.851Z,5.58
2019-05-11T17:50:08.521Z,6.80
2019-05-11T17:52:38.416Z,5.67
2019-05-11T17:55:07.814Z,5.97
2019-05-11T17:57:38.211Z,5.77
2019-05-11T18:00:08.119Z,5.40
2019-05-11T18:02:39.014Z,11.33
2019-05-11T18:05:09.099Z,5.30
2019-05-11T18:07:38.780Z,5.60
2019-05-11T18:10:08.387Z,6.22
2019-05-11T18:12:39.072Z,6.17
2019-05-11T18:15:13.599Z,6.30
2019-05-11T18:17:42.470Z,5.77
2019-05-11T18:20:17.572Z,6.00
2019-05-11T18:22:42.583Z,5.65
2019-05-11T18:25:13.939Z,6.00
2019-05-11T18:27:42.445Z,6.17
2019-05-11T18:30:11.383Z,5.85
2019-05-11T18:32:40.383Z,5.85
2019-05-11T18:35:09.401Z,5.90
2019-05-11T18:37:38.883Z,5.20
2019-05-11T18:40:08.807Z,6.20
2019-05-11T18:42:38.269Z,4.90
2019-05-11T18:45:08.459Z,5.95
2019-05-11T18:47:38.201Z,6.20
2019-05-11T18:50:08.359Z,6.22
2019-05-11T18:52:37.356Z,5.87
2019-05-11T18:55:08.452Z,6.45
2019-05-11T18:57:38.412Z,6.83
2019-05-11T19:00:08.359Z,6.95
2019-05-11T19:02:38.486Z,7.50
2019-05-11T19:05:08.167Z,6.92
2019-05-11T19:07:38.746Z,7.17
2019-05-11T19:10:08.804Z,5.47
2019-05-11T19:12:37.874Z,5.60
2019-05-11T19:15:07.909Z,5.25
2019-05-11T19:17:38.481Z,4.40
2019-05-11T19:20:28.310Z,4.00
2019-05-11T19:22:58.981Z,4.40
2019-05-11T19:25:28.221Z,5.00
2019-05-11T19:27:58.946Z,4.15
2019-05-11T19:30:28.169Z,4.40
2019-05-11T19:32:58.981Z,4.30
2019-05-11T19:35:28.628Z,4.65
2019-05-11T19:37:58.372Z,5.30
2019-05-11T19:40:28.263Z,4.80
2019-05-11T19:42:59.078Z,3.70
2019-05-11T19:45:29.456Z,4.50
2019-05-11T19:47:58.668Z,4.83
2019-05-11T19:50:27.744Z,4.35
2019-05-11T19:52:57.957Z,4.45
2019-05-11T19:55:28.573Z,4.17
2019-05-11T19:57:57.698Z,4.12
2019-05-11T20:00:26.670Z,4.30
2019-05-11T20:02:55.686Z,3.80
2019-05-11T20:05:24.574Z,4.50
2019-05-11T20:07:53.632Z,4.12
2019-05-11T20:10:22.695Z,4.60
2019-05-11T20:12:51.592Z,4.42
2019-05-11T20:15:20.748Z,3.90
2019-05-11T20:17:55.319Z,4.60
2019-05-11T20:20:24.509Z,4.65
2019-05-11T20:22:53.652Z,5.83
2019-05-11T20:25:22.738Z,3.58
2019-05-11T20:27:51.614Z,3.62
2019-05-11T20:30:20.668Z,3.50
2019-05-11T20:32:49.704Z,3.40
2019-05-11T20:35:19.115Z,4.50
2019-05-11T20:37:48.170Z,3.83
2019-05-11T20:40:18.312Z,3.72
2019-05-11T20:42:48.562Z,3.40
2019-05-11T20:45:18.847Z,3.17
2019-05-11T20:47:48.930Z,4.10
2019-05-11T20:50:18.671Z,2.70
2019-05-11T20:52:48.446Z,2.75
2019-05-11T20:55:18.334Z,2.50
2019-05-11T20:57:48.464Z,3.80
2019-05-11T21:00:18.865Z,2.40
2019-05-11T21:02:48.868Z,21.75
2019-05-11T21:05:18.509Z,3.02
2019-05-11T21:07:51.458Z,1.92
2019-05-11T21:10:20.776Z,2.00
2019-05-11T21:12:49.951Z,1.90
2019-05-11T21:15:19.422Z,2.27
2019-05-11T21:17:50.723Z,1.77
2019-05-11T21:20:19.717Z,1.77
2019-05-11T21:22:49.077Z,2.10
2019-05-11T21:25:18.559Z,2.00
2019-05-11T21:27:48.714Z,1.80
2019-05-11T21:30:18.446Z,1.80
2019-05-11T21:32:48.294Z,1.85
2019-05-11T21:35:19.205Z,1.67
2019-05-11T21:37:48.803Z,2.07
2019-05-11T21:40:17.928Z,2.10
2019-05-11T21:42:47.625Z,2.10
2019-05-11T21:45:18.639Z,1.55
2019-05-11T21:47:48.976Z,1.70
2019-05-11T21:50:23.513Z,1.70
2019-05-11T21:52:54.237Z,2.17
2019-05-11T21:55:23.105Z,2.25
2019-05-11T21:57:52.925Z,2.08
2019-05-11T22:00:27.976Z,4.20
2019-05-11T22:02:56.283Z,3.98
2019-05-11T22:05:25.531Z,2.80
2019-05-11T22:07:54.591Z,3.23
2019-05-11T22:10:23.576Z,2.10
2019-05-11T22:12:52.802Z,2.30
2019-05-11T22:15:21.840Z,1.92
2019-05-11T22:17:50.744Z,2.58
2019-05-11T22:20:19.794Z,2.37
2019-05-11T22:22:48.648Z,2.65
2019-05-11T22:25:18.238Z,3.12
2019-05-11T22:27:48.739Z,2.20
2019-05-11T22:30:18.637Z,2.80
2019-05-11T22:32:47.871Z,3.05
2019-05-11T22:35:18.342Z,2.50
2019-05-11T22:37:49.055Z,2.30
2019-05-11T22:40:18.226Z,2.90
2019-05-11T22:42:47.191Z,5.87
2019-05-11T22:45:18.446Z,2.98
2019-05-11T22:47:48.130Z,2.10
2019-05-11T22:50:18.694Z,2.10
2019-05-11T22:52:48.499Z,2.20
2019-05-11T22:55:18.803Z,2.00
2019-05-11T22:57:48.655Z,2.67
2019-05-11T23:00:22.226Z,2.02
2019-05-11T23:02:51.166Z,2.40
2019-05-11T23:05:20.346Z,2.45
2019-05-11T23:07:49.175Z,2.75
2019-05-11T23:10:18.101Z,2.12
2019-05-11T23:12:48.261Z,2.12
2019-05-11T23:15:19.226Z,2.70
2019-05-11T23:17:48.255Z,2.47
2019-05-11T23:20:17.283Z,2.67
2019-05-11T23:22:57.785Z,2.65
2019-05-11T23:25:19.806Z,2.27
2019-05-11T23:27:49.092Z,2.33
2019-05-11T23:30:20.058Z,2.30
2019-05-11T23:32:49.573Z,2.30
2019-05-11T23:35:19.172Z,2.10
2019-05-11T23:37:49.609Z,2.55
2019-05-11T23:40:20.116Z,2.42
2019-05-11T23:42:49.508Z,2.30
2019-05-11T23:45:19.190Z,2.37
2019-05-11T23:47:48.910Z,2.80
2019-05-11T23:50:19.161Z,2.17
2019-05-11T23:52:53.236Z,2.50
2019-05-11T23:55:19.542Z,2.62
2019-05-11T23:57:48.999Z,2.30
